createdAt,value
2023-05-20T00:02:06.618Z,11.54
2023-05-20T00:09:26.530Z,11.42
2023-05-20T00:16:45.026Z,11.43
2023-05-20T00:24:03.454Z,11.45
2023-05-20T00:31:23.546Z,11.53
2023-05-20T00:38:41.724Z,11.41
2023-05-20T00:45:59.954Z,11.48
2023-05-20T00:53:20.229Z,11.56
2023-05-20T01:00:39.012Z,11.38
2023-05-20T01:07:57.369Z,11.38
2023-05-20T01:15:17.784Z,11.40
2023-05-20T01:22:39.333Z,11.32
2023-05-20T01:29:57.608Z,11.34
2023-05-20T01:37:16.481Z,11.27
2023-05-20T01:44:37.363Z,11.36
2023-05-20T01:51:55.982Z,11.27
2023-05-20T01:59:14.344Z,11.17
2023-05-20T02:06:34.415Z,11.18
2023-05-20T02:13:52.915Z,11.23
2023-05-20T02:21:11.500Z,11.25
2023-05-20T02:28:31.380Z,11.19
2023-05-20T02:35:49.750Z,11.19
2023-05-20T02:43:08.043Z,11.22
2023-05-20T02:50:27.927Z,11.18
2023-05-20T02:57:46.310Z,11.23
2023-05-20T03:05:05.882Z,11.34
2023-05-20T03:12:26.537Z,11.33
2023-05-20T03:19:47.614Z,11.36
2023-05-20T03:27:07.133Z,11.39
2023-05-20T03:34:30.448Z,11.38
2023-05-20T03:41:48.848Z,11.42
2023-05-20T03:49:07.326Z,11.41
2023-05-20T03:56:27.720Z,11.46
2023-05-20T04:03:46.220Z,11.48
2023-05-20T04:11:04.864Z,11.55
2023-05-20T04:18:24.658Z,11.49
2023-05-20T04:25:44.865Z,11.40
2023-05-20T04:33:04.311Z,11.44
2023-05-20T04:40:25.369Z,11.43
2023-05-20T04:47:46.196Z,11.51
2023-05-20T04:55:06.515Z,11.58
2023-05-20T05:02:26.425Z,11.64
2023-05-20T05:09:45.923Z,11.74
2023-05-20T05:17:04.534Z,11.78
2023-05-20T05:24:24.509Z,11.88
2023-05-20T05:31:44.400Z,11.93
2023-05-20T05:39:02.858Z,11.82
2023-05-20T05:46:23.246Z,11.93
2023-05-20T05:53:42.008Z,11.91
2023-05-20T06:01:00.667Z,11.76
2023-05-20T06:08:22.497Z,11.69
2023-05-20T06:15:41.533Z,11.81
2023-05-20T06:23:00.156Z,11.75
2023-05-20T06:30:28.390Z,11.87
2023-05-20T06:37:46.785Z,11.85
2023-05-20T06:45:06.144Z,11.69
2023-05-20T06:52:45.901Z,11.98
2023-05-20T07:00:06.192Z,12.05
2023-05-20T07:07:29.196Z,12.18
2023-05-20T07:14:50.066Z,12.30
2023-05-20T07:22:08.539Z,12.33
2023-05-20T07:29:37.862Z,12.45
2023-05-20T07:36:58.281Z,12.61
2023-05-20T07:44:18.953Z,12.74
2023-05-20T07:51:40.466Z,12.77
2023-05-20T07:59:04.613Z,12.83
2023-05-20T08:06:29.979Z,12.90
2023-05-20T08:13:50.704Z,12.99
2023-05-20T08:21:11.442Z,13.38
2023-05-20T08:28:29.970Z,13.89
2023-05-20T08:35:49.880Z,14.03
2023-05-20T08:43:09.762Z,14.21
2023-05-20T08:50:28.915Z,14.35
2023-05-20T08:57:47.735Z,14.60
2023-05-20T09:05:09.456Z,14.83
2023-05-20T09:12:27.752Z,14.88
2023-05-20T09:19:46.159Z,15.26
2023-05-20T09:27:06.623Z,14.97
2023-05-20T09:34:25.333Z,15.30
2023-05-20T09:41:51.116Z,15.49
2023-05-20T09:49:11.057Z,15.66
2023-05-20T09:56:30.104Z,15.64
2023-05-20T10:03:48.416Z,15.67
2023-05-20T10:11:15.022Z,15.61
2023-05-20T10:18:43.607Z,15.96
2023-05-20T10:26:09.442Z,15.72
2023-05-20T10:33:28.671Z,15.39
2023-05-20T10:40:47.002Z,15.57
2023-05-20T10:48:07.137Z,15.86
2023-05-20T10:55:25.969Z,16.17
2023-05-20T11:02:44.820Z,16.45
2023-05-20T11:10:09.989Z,16.27
2023-05-20T11:17:30.047Z,16.04
2023-05-20T11:24:48.331Z,16.01
2023-05-20T11:32:09.729Z,16.47
2023-05-20T11:39:31.619Z,16.26
2023-05-20T11:46:50.255Z,16.44
2023-05-20T11:54:11.929Z,16.61
2023-05-20T12:01:33.985Z,16.74
2023-05-20T12:08:52.370Z,16.52
2023-05-20T12:16:12.219Z,16.86
2023-05-20T12:23:34.370Z,16.90
2023-05-20T12:30:53.180Z,16.61
2023-05-20T12:38:13.207Z,16.86
2023-05-20T12:45:39.485Z,16.91
2023-05-20T12:52:57.888Z,16.85
2023-05-20T13:00:19.489Z,17.00
2023-05-20T13:07:38.200Z,17.53
2023-05-20T13:14:57.095Z,17.53
2023-05-20T13:22:18.334Z,18.01
2023-05-20T13:29:36.620Z,17.46
2023-05-20T13:36:54.853Z,17.68
2023-05-20T13:44:14.610Z,18.27
2023-05-20T13:51:32.954Z,18.05
2023-05-20T13:58:51.710Z,18.21
2023-05-20T14:06:11.726Z,18.19
2023-05-20T14:13:30.031Z,18.54
2023-05-20T14:20:48.646Z,18.88
2023-05-20T14:28:08.736Z,18.75
2023-05-20T14:35:27.478Z,18.54
2023-05-20T14:42:45.997Z,18.91
2023-05-20T14:50:06.182Z,18.91
2023-05-20T14:57:24.542Z,19.14
2023-05-20T15:04:44.488Z,19.04
2023-05-20T15:12:04.607Z,18.55
2023-05-20T15:19:23.039Z,18.64
2023-05-20T15:26:42.461Z,19.08
2023-05-20T15:34:02.590Z,19.33
2023-05-20T15:41:21.810Z,19.52
2023-05-20T15:48:41.350Z,19.51
2023-05-20T15:56:01.626Z,19.40
2023-05-20T16:03:20.141Z,19.52
2023-05-20T16:10:38.558Z,19.44
2023-05-20T16:17:58.456Z,19.52
2023-05-20T16:25:16.814Z,19.42
2023-05-20T16:32:35.239Z,19.38
2023-05-20T16:39:55.470Z,19.33
2023-05-20T16:47:14.144Z,19.16
2023-05-20T16:54:32.824Z,19.09
2023-05-20T17:01:52.996Z,18.89
2023-05-20T17:09:11.281Z,18.95
2023-05-20T17:16:29.938Z,18.72
2023-05-20T17:23:50.124Z,18.66
2023-05-20T17:31:09.213Z,18.54
2023-05-20T17:38:27.636Z,18.36
2023-05-20T17:45:47.692Z,18.08
2023-05-20T17:53:06.232Z,18.03
2023-05-20T18:00:24.480Z,17.94
2023-05-20T18:07:44.496Z,17.89
2023-05-20T18:15:03.031Z,17.54
2023-05-20T18:22:27.594Z,17.22
2023-05-20T18:29:47.556Z,16.87
2023-05-20T18:37:06.333Z,16.51
2023-05-20T18:44:27.149Z,16.38
2023-05-20T18:51:47.636Z,16.18
2023-05-20T18:59:07.718Z,16.08
2023-05-20T19:06:29.257Z,15.80
2023-05-20T19:13:54.244Z,15.77
2023-05-20T19:21:15.264Z,15.81
2023-05-20T19:28:34.355Z,15.78
2023-05-20T19:35:57.897Z,15.70
2023-05-20T19:43:16.354Z,15.65
2023-05-20T19:50:35.462Z,15.80
2023-05-20T19:57:56.608Z,15.81
2023-05-20T20:05:15.595Z,15.87
2023-05-20T20:12:34.079Z,15.96
2023-05-20T20:19:58.182Z,15.84
2023-05-20T20:27:16.448Z,15.62
2023-05-20T20:34:38.784Z,15.50
2023-05-20T20:42:00.788Z,15.54
2023-05-20T20:49:19.435Z,15.46
2023-05-20T20:56:40.054Z,15.34
2023-05-20T21:04:01.360Z,15.30
2023-05-20T21:11:19.869Z,15.24
2023-05-20T21:18:38.196Z,15.16
2023-05-20T21:25:58.998Z,15.01
2023-05-20T21:33:21.427Z,15.02
2023-05-20T21:40:40.182Z,14.88
2023-05-20T21:48:00.500Z,14.87
2023-05-20T21:55:23.642Z,14.81
2023-05-20T22:02:42.057Z,14.75
2023-05-20T22:10:02.527Z,14.66
2023-05-20T22:17:21.915Z,14.60
2023-05-20T22:24:40.404Z,14.58
2023-05-20T22:32:00.597Z,14.54
2023-05-20T22:39:19.209Z,14.49
2023-05-20T22:46:37.768Z,14.52
2023-05-20T22:53:58.535Z,14.45
2023-05-20T23:01:17.407Z,14.46
2023-05-20T23:08:35.838Z,14.53
2023-05-20T23:15:55.921Z,14.52
2023-05-20T23:23:14.397Z,14.53
2023-05-20T23:30:33.203Z,14.48
2023-05-20T23:37:53.426Z,14.35
2023-05-20T23:45:13.171Z,14.23
2023-05-20T23:52:31.664Z,14.20
2023-05-20T23:59:51.439Z,14.05
